sensor_id;sensor_type;location;lat;lon;timestamp;P1;P2;P0
62846;PMS5003;49477;35.676;139.586;2023-07-13T00:01:14;7;7;
62846;PMS5003;49477;35.676;139.586;2023-07-13T00:03:43;9;9;
62846;PMS5003;49477;35.676;139.586;2023-07-13T00:06:13;5;5;
62846;PMS5003;49477;35.676;139.586;2023-07-13T00:08:42;5;5;
62846;PMS5003;49477;35.676;139.586;2023-07-13T00:11:12;6;6;
62846;PMS5003;49477;35.676;139.586;2023-07-13T00:13:42;4;4;
62846;PMS5003;49477;35.676;139.586;2023-07-13T00:16:11;3;3;
62846;PMS5003;49477;35.676;139.586;2023-07-13T00:18:40;5;5;
62846;PMS5003;49477;35.676;139.586;2023-07-13T00:21:09;5;5;
62846;PMS5003;49477;35.676;139.586;2023-07-13T00:23:40;5;5;
62846;PMS5003;49477;35.676;139.586;2023-07-13T00:26:10;5;5;
62846;PMS5003;49477;35.676;139.586;2023-07-13T00:28:40;5;5;
62846;PMS5003;49477;35.676;139.586;2023-07-13T00:31:09;2;2;
62846;PMS5003;49477;35.676;139.586;2023-07-13T00:33:39;5;5;
62846;PMS5003;49477;35.676;139.586;2023-07-13T00:36:09;3;3;
62846;PMS5003;49477;35.676;139.586;2023-07-13T00:38:39;3;2;
62846;PMS5003;49477;35.676;139.586;2023-07-13T00:41:08;3;3;
62846;PMS5003;49477;35.676;139.586;2023-07-13T00:43:38;1;1;
62846;PMS5003;49477;35.676;139.586;2023-07-13T00:46:13;2;2;
62846;PMS5003;49477;35.676;139.586;2023-07-13T00:48:47;2;2;
62846;PMS5003;49477;35.676;139.586;2023-07-13T00:51:19;6;3;
62846;PMS5003;49477;35.676;139.586;2023-07-13T00:53:53;1;1;
62846;PMS5003;49477;35.676;139.586;2023-07-13T00:56:25;4;1;
62846;PMS5003;49477;35.676;139.586;2023-07-13T00:58:55;2;2;
62846;PMS5003;49477;35.676;139.586;2023-07-13T01:01:27;2;2;
62846;PMS5003;49477;35.676;139.586;2023-07-13T01:03:56;3;3;
62846;PMS5003;49477;35.676;139.586;2023-07-13T01:06:26;1;1;
62846;PMS5003;49477;35.676;139.586;2023-07-13T01:08:55;1;1;
62846;PMS5003;49477;35.676;139.586;2023-07-13T01:11:25;1;1;
62846;PMS5003;49477;35.676;139.586;2023-07-13T01:13:55;2;2;
62846;PMS5003;49477;35.676;139.586;2023-07-13T01:16:27;1;1;
62846;PMS5003;49477;35.676;139.586;2023-07-13T01:18:57;2;2;
62846;PMS5003;49477;35.676;139.586;2023-07-13T01:21:27;1;1;
62846;PMS5003;49477;35.676;139.586;2023-07-13T01:24:00;2;2;
62846;PMS5003;49477;35.676;139.586;2023-07-13T01:26:29;1;1;
62846;PMS5003;49477;35.676;139.586;2023-07-13T01:28:59;2;2;
62846;PMS5003;49477;35.676;139.586;2023-07-13T01:31:28;2;2;
62846;PMS5003;49477;35.676;139.586;2023-07-13T01:33:58;1;1;
62846;PMS5003;49477;35.676;139.586;2023-07-13T01:36:27;2;2;
62846;PMS5003;49477;35.676;139.586;2023-07-13T01:38:57;0;0;
62846;PMS5003;49477;35.676;139.586;2023-07-13T01:41:26;3;3;
62846;PMS5003;49477;35.676;139.586;2023-07-13T01:43:56;1;1;
62846;PMS5003;49477;35.676;139.586;2023-07-13T01:46:25;3;3;
62846;PMS5003;49477;35.676;139.586;2023-07-13T01:48:55;1;1;
62846;PMS5003;49477;35.676;139.586;2023-07-13T01:51:24;2;2;
62846;PMS5003;49477;35.676;139.586;2023-07-13T01:53:54;3;2;
62846;PMS5003;49477;35.676;139.586;2023-07-13T01:56:23;2;2;
62846;PMS5003;49477;35.676;139.586;2023-07-13T01:58:53;2;2;
62846;PMS5003;49477;35.676;139.586;2023-07-13T02:01:22;2;2;
62846;PMS5003;49477;35.676;139.586;2023-07-13T02:03:52;2;2;
62846;PMS5003;49477;35.676;139.586;2023-07-13T02:06:21;2;2;
62846;PMS5003;49477;35.676;139.586;2023-07-13T02:08:51;1;1;
62846;PMS5003;49477;35.676;139.586;2023-07-13T02:11:21;3;3;
62846;PMS5003;49477;35.676;139.586;2023-07-13T02:13:50;2;2;
62846;PMS5003;49477;35.676;139.586;2023-07-13T02:16:19;3;3;
62846;PMS5003;49477;35.676;139.586;2023-07-13T02:18:48;1;1;
62846;PMS5003;49477;35.676;139.586;2023-07-13T02:21:18;6;4;
62846;PMS5003;49477;35.676;139.586;2023-07-13T02:23:47;3;3;
62846;PMS5003;49477;35.676;139.586;2023-07-13T02:26:17;4;4;
62846;PMS5003;49477;35.676;139.586;2023-07-13T02:28:46;6;5;
62846;PMS5003;49477;35.676;139.586;2023-07-13T02:31:16;6;6;
62846;PMS5003;49477;35.676;139.586;2023-07-13T02:33:45;6;4;
62846;PMS5003;49477;35.676;139.586;2023-07-13T02:36:15;8;6;
62846;PMS5003;49477;35.676;139.586;2023-07-13T02:38:44;8;8;
62846;PMS5003;49477;35.676;139.586;2023-07-13T02:41:14;6;6;
62846;PMS5003;49477;35.676;139.586;2023-07-13T02:43:43;9;8;
62846;PMS5003;49477;35.676;139.586;2023-07-13T02:46:13;7;7;
62846;PMS5003;49477;35.676;139.586;2023-07-13T02:48:42;7;7;
62846;PMS5003;49477;35.676;139.586;2023-07-13T02:51:11;5;5;
62846;PMS5003;49477;35.676;139.586;2023-07-13T02:53:40;6;6;
62846;PMS5003;49477;35.676;139.586;2023-07-13T02:56:09;7;7;
62846;PMS5003;49477;35.676;139.586;2023-07-13T02:58:39;4;4;
62846;PMS5003;49477;35.676;139.586;2023-07-13T03:01:08;6;6;
62846;PMS5003;49477;35.676;139.586;2023-07-13T03:03:38;5;5;
62846;PMS5003;49477;35.676;139.586;2023-07-13T03:06:08;6;5;
62846;PMS5003;49477;35.676;139.586;2023-07-13T03:08:38;6;6;
62846;PMS5003;49477;35.676;139.586;2023-07-13T03:11:07;6;6;
62846;PMS5003;49477;35.676;139.586;2023-07-13T03:13:38;6;6;
62846;PMS5003;49477;35.676;139.586;2023-07-13T03:16:09;6;6;
62846;PMS5003;49477;35.676;139.586;2023-07-13T03:18:39;6;6;
62846;PMS5003;49477;35.676;139.586;2023-07-13T03:21:09;6;6;
62846;PMS5003;49477;35.676;139.586;2023-07-13T03:23:38;8;8;
62846;PMS5003;49477;35.676;139.586;2023-07-13T03:26:09;7;7;
62846;PMS5003;49477;35.676;139.586;2023-07-13T03:28:40;4;4;
62846;PMS5003;49477;35.676;139.586;2023-07-13T03:31:10;5;5;
62846;PMS5003;49477;35.676;139.586;2023-07-13T03:33:42;6;6;
62846;PMS5003;49477;35.676;139.586;2023-07-13T03:36:13;3;3;
62846;PMS5003;49477;35.676;139.586;2023-07-13T03:38:48;4;4;
62846;PMS5003;49477;35.676;139.586;2023-07-13T03:41:18;3;3;
62846;PMS5003;49477;35.676;139.586;2023-07-13T03:43:49;3;3;
62846;PMS5003;49477;35.676;139.586;2023-07-13T03:46:19;4;4;
62846;PMS5003;49477;35.676;139.586;2023-07-13T03:48:48;2;2;
62846;PMS5003;49477;35.676;139.586;2023-07-13T03:51:18;6;3;
62846;PMS5003;49477;35.676;139.586;2023-07-13T03:53:47;2;2;
62846;PMS5003;49477;35.676;139.586;2023-07-13T03:56:17;3;3;
62846;PMS5003;49477;35.676;139.586;2023-07-13T03:58:47;3;3;
62846;PMS5003;49477;35.676;139.586;2023-07-13T04:01:23;2;2;
62846;PMS5003;49477;35.676;139.586;2023-07-13T04:03:53;5;4;
62846;PMS5003;49477;35.676;139.586;2023-07-13T04:06:23;3;3;
62846;PMS5003;49477;35.676;139.586;2023-07-13T04:08:56;3;3;
62846;PMS5003;49477;35.676;139.586;2023-07-13T04:11:29;3;3;
62846;PMS5003;49477;35.676;139.586;2023-07-13T04:13:59;3;3;
62846;PMS5003;49477;35.676;139.586;2023-07-13T04:16:29;3;3;
62846;PMS5003;49477;35.676;139.586;2023-07-13T04:18:58;3;3;
62846;PMS5003;49477;35.676;139.586;2023-07-13T04:21:28;3;3;
62846;PMS5003;49477;35.676;139.586;2023-07-13T04:23:59;3;3;
62846;PMS5003;49477;35.676;139.586;2023-07-13T04:26:28;3;3;
62846;PMS5003;49477;35.676;139.586;2023-07-13T04:28:58;3;3;
62846;PMS5003;49477;35.676;139.586;2023-07-13T04:31:27;4;4;
62846;PMS5003;49477;35.676;139.586;2023-07-13T04:33:57;4;4;
62846;PMS5003;49477;35.676;139.586;2023-07-13T04:36:26;3;3;
62846;PMS5003;49477;35.676;139.586;2023-07-13T04:38:56;3;3;
62846;PMS5003;49477;35.676;139.586;2023-07-13T04:41:25;4;4;
62846;PMS5003;49477;35.676;139.586;2023-07-13T04:43:55;6;5;
62846;PMS5003;49477;35.676;139.586;2023-07-13T04:46:24;5;5;
62846;PMS5003;49477;35.676;139.586;2023-07-13T04:48:54;6;6;
62846;PMS5003;49477;35.676;139.586;2023-07-13T04:51:23;5;5;
62846;PMS5003;49477;35.676;139.586;2023-07-13T04:53:53;7;7;
62846;PMS5003;49477;35.676;139.586;2023-07-13T04:56:22;7;6;
62846;PMS5003;49477;35.676;139.586;2023-07-13T04:58:52;6;6;
62846;PMS5003;49477;35.676;139.586;2023-07-13T05:01:21;8;8;
62846;PMS5003;49477;35.676;139.586;2023-07-13T05:03:51;8;8;
62846;PMS5003;49477;35.676;139.586;2023-07-13T05:06:21;10;10;
62846;PMS5003;49477;35.676;139.586;2023-07-13T05:08:50;9;9;
62846;PMS5003;49477;35.676;139.586;2023-07-13T05:11:20;7;7;
62846;PMS5003;49477;35.676;139.586;2023-07-13T05:13:49;10;8;
62846;PMS5003;49477;35.676;139.586;2023-07-13T05:16:19;8;8;
62846;PMS5003;49477;35.676;139.586;2023-07-13T05:18:48;10;9;
62846;PMS5003;49477;35.676;139.586;2023-07-13T05:21:19;10;10;
62846;PMS5003;49477;35.676;139.586;2023-07-13T05:23:50;11;10;
62846;PMS5003;49477;35.676;139.586;2023-07-13T05:26:20;7;7;
62846;PMS5003;49477;35.676;139.586;2023-07-13T05:28:49;8;8;
62846;PMS5003;49477;35.676;139.586;2023-07-13T05:31:19;7;7;
62846;PMS5003;49477;35.676;139.586;2023-07-13T05:33:48;8;8;
62846;PMS5003;49477;35.676;139.586;2023-07-13T05:36:18;9;7;
62846;PMS5003;49477;35.676;139.586;2023-07-13T05:38:47;10;8;
62846;PMS5003;49477;35.676;139.586;2023-07-13T05:41:17;10;10;
62846;PMS5003;49477;35.676;139.586;2023-07-13T05:43:46;9;8;
62846;PMS5003;49477;35.676;139.586;2023-07-13T05:46:15;10;8;
62846;PMS5003;49477;35.676;139.586;2023-07-13T05:48:45;7;7;
62846;PMS5003;49477;35.676;139.586;2023-07-13T05:51:15;12;8;
62846;PMS5003;49477;35.676;139.586;2023-07-13T05:53:45;9;9;
62846;PMS5003;49477;35.676;139.586;2023-07-13T05:56:14;8;7;
62846;PMS5003;49477;35.676;139.586;2023-07-13T05:58:44;8;8;
62846;PMS5003;49477;35.676;139.586;2023-07-13T06:01:13;7;7;
62846;PMS5003;49477;35.676;139.586;2023-07-13T06:03:44;9;9;
62846;PMS5003;49477;35.676;139.586;2023-07-13T06:06:13;8;8;
62846;PMS5003;49477;35.676;139.586;2023-07-13T06:08:43;12;9;
62846;PMS5003;49477;35.676;139.586;2023-07-13T06:11:13;9;8;
62846;PMS5003;49477;35.676;139.586;2023-07-13T06:13:43;8;6;
62846;PMS5003;49477;35.676;139.586;2023-07-13T06:16:13;9;9;
62846;PMS5003;49477;35.676;139.586;2023-07-13T06:18:43;7;6;
62846;PMS5003;49477;35.676;139.586;2023-07-13T06:21:13;8;8;
62846;PMS5003;49477;35.676;139.586;2023-07-13T06:23:43;7;7;
62846;PMS5003;49477;35.676;139.586;2023-07-13T06:26:14;9;8;
62846;PMS5003;49477;35.676;139.586;2023-07-13T06:28:44;10;9;
62846;PMS5003;49477;35.676;139.586;2023-07-13T06:31:14;8;7;
62846;PMS5003;49477;35.676;139.586;2023-07-13T06:33:44;9;9;
62846;PMS5003;49477;35.676;139.586;2023-07-13T06:36:14;7;7;
62846;PMS5003;49477;35.676;139.586;2023-07-13T06:38:43;6;6;
62846;PMS5003;49477;35.676;139.586;2023-07-13T06:41:12;7;7;
62846;PMS5003;49477;35.676;139.586;2023-07-13T06:43:42;8;8;
62846;PMS5003;49477;35.676;139.586;2023-07-13T06:46:11;7;6;
62846;PMS5003;49477;35.676;139.586;2023-07-13T06:48:41;9;9;
62846;PMS5003;49477;35.676;139.586;2023-07-13T06:51:11;7;7;
62846;PMS5003;49477;35.676;139.586;2023-07-13T06:53:40;10;9;
62846;PMS5003;49477;35.676;139.586;2023-07-13T06:56:10;10;10;
62846;PMS5003;49477;35.676;139.586;2023-07-13T06:58:39;9;9;
62846;PMS5003;49477;35.676;139.586;2023-07-13T07:01:09;8;8;
62846;PMS5003;49477;35.676;139.586;2023-07-13T07:03:38;10;9;
62846;PMS5003;49477;35.676;139.586;2023-07-13T07:06:11;9;9;
62846;PMS5003;49477;35.676;139.586;2023-07-13T07:08:43;8;8;
62846;PMS5003;49477;35.676;139.586;2023-07-13T07:11:15;8;7;
62846;PMS5003;49477;35.676;139.586;2023-07-13T07:13:52;9;9;
62846;PMS5003;49477;35.676;139.586;2023-07-13T07:16:21;8;8;
62846;PMS5003;49477;35.676;139.586;2023-07-13T07:18:53;11;11;
62846;PMS5003;49477;35.676;139.586;2023-07-13T07:21:22;10;9;
62846;PMS5003;49477;35.676;139.586;2023-07-13T07:23:52;8;8;
62846;PMS5003;49477;35.676;139.586;2023-07-13T07:26:21;8;8;
62846;PMS5003;49477;35.676;139.586;2023-07-13T07:28:51;8;8;
62846;PMS5003;49477;35.676;139.586;2023-07-13T07:31:20;11;10;
62846;PMS5003;49477;35.676;139.586;2023-07-13T07:33:50;13;11;
62846;PMS5003;49477;35.676;139.586;2023-07-13T07:36:19;11;9;
62846;PMS5003;49477;35.676;139.586;2023-07-13T07:38:49;10;10;
62846;PMS5003;49477;35.676;139.586;2023-07-13T07:41:18;8;8;
62846;PMS5003;49477;35.676;139.586;2023-07-13T07:43:48;11;8;
62846;PMS5003;49477;35.676;139.586;2023-07-13T07:46:17;7;7;
62846;PMS5003;49477;35.676;139.586;2023-07-13T07:48:46;8;8;
62846;PMS5003;49477;35.676;139.586;2023-07-13T07:51:16;11;11;
62846;PMS5003;49477;35.676;139.586;2023-07-13T07:53:45;11;10;
62846;PMS5003;49477;35.676;139.586;2023-07-13T07:56:15;12;11;
62846;PMS5003;49477;35.676;139.586;2023-07-13T07:58:44;10;9;
62846;PMS5003;49477;35.676;139.586;2023-07-13T08:01:14;11;10;
62846;PMS5003;49477;35.676;139.586;2023-07-13T08:03:43;10;7;
62846;PMS5003;49477;35.676;139.586;2023-07-13T08:06:13;12;11;
62846;PMS5003;49477;35.676;139.586;2023-07-13T08:08:43;10;8;
62846;PMS5003;49477;35.676;139.586;2023-07-13T08:11:12;11;11;
62846;PMS5003;49477;35.676;139.586;2023-07-13T08:13:41;11;11;
62846;PMS5003;49477;35.676;139.586;2023-07-13T08:16:11;10;10;
62846;PMS5003;49477;35.676;139.586;2023-07-13T08:18:40;11;11;
62846;PMS5003;49477;35.676;139.586;2023-07-13T08:21:10;9;9;
62846;PMS5003;49477;35.676;139.586;2023-07-13T08:23:39;9;9;
62846;PMS5003;49477;35.676;139.586;2023-07-13T08:26:09;10;10;
62846;PMS5003;49477;35.676;139.586;2023-07-13T08:28:38;12;10;
62846;PMS5003;49477;35.676;139.586;2023-07-13T08:31:08;10;8;
62846;PMS5003;49477;35.676;139.586;2023-07-13T08:33:38;9;9;
62846;PMS5003;49477;35.676;139.586;2023-07-13T08:36:09;10;9;
62846;PMS5003;49477;35.676;139.586;2023-07-13T08:38:38;13;11;
62846;PMS5003;49477;35.676;139.586;2023-07-13T08:41:12;14;12;
62846;PMS5003;49477;35.676;139.586;2023-07-13T08:43:43;11;10;
62846;PMS5003;49477;35.676;139.586;2023-07-13T08:46:18;9;9;
62846;PMS5003;49477;35.676;139.586;2023-07-13T08:48:53;14;13;
62846;PMS5003;49477;35.676;139.586;2023-07-13T08:51:28;9;8;
62846;PMS5003;49477;35.676;139.586;2023-07-13T08:54:04;14;12;
62846;PMS5003;49477;35.676;139.586;2023-07-13T08:56:49;14;9;
62846;PMS5003;49477;35.676;139.586;2023-07-13T08:59:21;13;12;
62846;PMS5003;49477;35.676;139.586;2023-07-13T09:01:58;8;8;
62846;PMS5003;49477;35.676;139.586;2023-07-13T09:04:42;7;7;
62846;PMS5003;49477;35.676;139.586;2023-07-13T09:07:19;11;11;
62846;PMS5003;49477;35.676;139.586;2023-07-13T09:10:00;10;8;
62846;PMS5003;49477;35.676;139.586;2023-07-13T09:12:43;11;11;
62846;PMS5003;49477;35.676;139.586;2023-07-13T09:15:23;11;10;
62846;PMS5003;49477;35.676;139.586;2023-07-13T09:18:02;9;9;
62846;PMS5003;49477;35.676;139.586;2023-07-13T09:20:38;9;9;
62846;PMS5003;49477;35.676;139.586;2023-07-13T09:23:15;9;9;
62846;PMS5003;49477;35.676;139.586;2023-07-13T09:25:48;12;10;
62846;PMS5003;49477;35.676;139.586;2023-07-13T09:28:22;12;9;
62846;PMS5003;49477;35.676;139.586;2023-07-13T09:30:56;9;9;
62846;PMS5003;49477;35.676;139.586;2023-07-13T09:33:28;9;9;
62846;PMS5003;49477;35.676;139.586;2023-07-13T09:35:57;8;8;
62846;PMS5003;49477;35.676;139.586;2023-07-13T09:38:27;8;7;
62846;PMS5003;49477;35.676;139.586;2023-07-13T09:41:01;7;7;
62846;PMS5003;49477;35.676;139.586;2023-07-13T09:43:44;6;5;
62846;PMS5003;49477;35.676;139.586;2023-07-13T09:46:39;6;5;
62846;PMS5003;49477;35.676;139.586;2023-07-13T09:49:12;5;4;
62846;PMS5003;49477;35.676;139.586;2023-07-13T09:51:41;8;6;
62846;PMS5003;49477;35.676;139.586;2023-07-13T09:54:21;7;7;
62846;PMS5003;49477;35.676;139.586;2023-07-13T09:56:55;4;3;
62846;PMS5003;49477;35.676;139.586;2023-07-13T09:59:28;5;5;
62846;PMS5003;49477;35.676;139.586;2023-07-13T10:01:59;4;4;
62846;PMS5003;49477;35.676;139.586;2023-07-13T10:04:29;6;5;
62846;PMS5003;49477;35.676;139.586;2023-07-13T10:07:09;6;6;
62846;PMS5003;49477;35.676;139.586;2023-07-13T10:09:40;4;4;
62846;PMS5003;49477;35.676;139.586;2023-07-13T10:12:13;7;7;
62846;PMS5003;49477;35.676;139.586;2023-07-13T10:14:43;8;8;
62846;PMS5003;49477;35.676;139.586;2023-07-13T10:17:13;9;8;
62846;PMS5003;49477;35.676;139.586;2023-07-13T10:19:45;11;9;
62846;PMS5003;49477;35.676;139.586;2023-07-13T10:22:19;10;10;
62846;PMS5003;49477;35.676;139.586;2023-07-13T10:24:56;12;9;
62846;PMS5003;49477;35.676;139.586;2023-07-13T10:27:29;12;11;
62846;PMS5003;49477;35.676;139.586;2023-07-13T10:30:02;12;11;
62846;PMS5003;49477;35.676;139.586;2023-07-13T10:32:41;15;13;
62846;PMS5003;49477;35.676;139.586;2023-07-13T10:35:13;13;12;
62846;PMS5003;49477;35.676;139.586;2023-07-13T10:37:44;13;11;
62846;PMS5003;49477;35.676;139.586;2023-07-13T10:40:18;12;12;
62846;PMS5003;49477;35.676;139.586;2023-07-13T10:42:51;13;13;
62846;PMS5003;49477;35.676;139.586;2023-07-13T10:45:24;8;8;
62846;PMS5003;49477;35.676;139.586;2023-07-13T10:47:57;10;10;
62846;PMS5003;49477;35.676;139.586;2023-07-13T10:50:28;10;10;
62846;PMS5003;49477;35.676;139.586;2023-07-13T10:53:01;14;14;
62846;PMS5003;49477;35.676;139.586;2023-07-13T10:55:54;12;11;
62846;PMS5003;49477;35.676;139.586;2023-07-13T10:58:31;14;12;
62846;PMS5003;49477;35.676;139.586;2023-07-13T11:01:04;15;15;
62846;PMS5003;49477;35.676;139.586;2023-07-13T11:03:37;11;11;
62846;PMS5003;49477;35.676;139.586;2023-07-13T11:06:33;14;11;
62846;PMS5003;49477;35.676;139.586;2023-07-13T11:09:17;14;14;
62846;PMS5003;49477;35.676;139.586;2023-07-13T11:11:59;11;11;
62846;PMS5003;49477;35.676;139.586;2023-07-13T11:14:30;11;10;
62846;PMS5003;49477;35.676;139.586;2023-07-13T11:17:23;11;11;
62846;PMS5003;49477;35.676;139.586;2023-07-13T11:20:19;12;12;
62846;PMS5003;49477;35.676;139.586;2023-07-13T11:22:51;11;11;
62846;PMS5003;49477;35.676;139.586;2023-07-13T11:25:35;10;10;
62846;PMS5003;49477;35.676;139.586;2023-07-13T11:28:13;10;10;
62846;PMS5003;49477;35.676;139.586;2023-07-13T11:30:49;15;13;
62846;PMS5003;49477;35.676;139.586;2023-07-13T11:34:12;12;10;
62846;PMS5003;49477;35.676;139.586;2023-07-13T11:36:43;10;10;
62846;PMS5003;49477;35.676;139.586;2023-07-13T11:39:17;12;11;
62846;PMS5003;49477;35.676;139.586;2023-07-13T11:41:53;11;11;
62846;PMS5003;49477;35.676;139.586;2023-07-13T11:44:26;10;10;
62846;PMS5003;49477;35.676;139.586;2023-07-13T11:46:58;12;10;
62846;PMS5003;49477;35.676;139.586;2023-07-13T11:49:41;13;12;
62846;PMS5003;49477;35.676;139.586;2023-07-13T11:52:11;11;11;
62846;PMS5003;49477;35.676;139.586;2023-07-13T11:54:46;11;10;
62846;PMS5003;49477;35.676;139.586;2023-07-13T11:57:24;9;8;
62846;PMS5003;49477;35.676;139.586;2023-07-13T11:59:57;10;8;
62846;PMS5003;49477;35.676;139.586;2023-07-13T12:02:30;14;10;
62846;PMS5003;49477;35.676;139.586;2023-07-13T12:05:10;9;9;
62846;PMS5003;49477;35.676;139.586;2023-07-13T12:07:41;11;9;
62846;PMS5003;49477;35.676;139.586;2023-07-13T12:10:17;12;10;
62846;PMS5003;49477;35.676;139.586;2023-07-13T12:12:48;9;8;
62846;PMS5003;49477;35.676;139.586;2023-07-13T12:15:21;10;9;
62846;PMS5003;49477;35.676;139.586;2023-07-13T12:17:52;9;9;
62846;PMS5003;49477;35.676;139.586;2023-07-13T12:20:23;10;10;
62846;PMS5003;49477;35.676;139.586;2023-07-13T12:22:54;14;13;
62846;PMS5003;49477;35.676;139.586;2023-07-13T12:25:24;12;10;
62846;PMS5003;49477;35.676;139.586;2023-07-13T12:27:54;18;11;
62846;PMS5003;49477;35.676;139.586;2023-07-13T12:30:25;12;12;
62846;PMS5003;49477;35.676;139.586;2023-07-13T12:32:57;9;9;
62846;PMS5003;49477;35.676;139.586;2023-07-13T12:35:29;12;10;
62846;PMS5003;49477;35.676;139.586;2023-07-13T12:37:59;9;8;
62846;PMS5003;49477;35.676;139.586;2023-07-13T12:40:31;8;8;
62846;PMS5003;49477;35.676;139.586;2023-07-13T12:43:01;9;7;
62846;PMS5003;49477;35.676;139.586;2023-07-13T12:45:32;5;5;
62846;PMS5003;49477;35.676;139.586;2023-07-13T12:48:04;5;5;
62846;PMS5003;49477;35.676;139.586;2023-07-13T12:50:43;6;6;
62846;PMS5003;49477;35.676;139.586;2023-07-13T12:53:17;6;6;
62846;PMS5003;49477;35.676;139.586;2023-07-13T12:55:49;6;6;
62846;PMS5003;49477;35.676;139.586;2023-07-13T12:58:24;6;6;
62846;PMS5003;49477;35.676;139.586;2023-07-13T13:00:56;5;5;
62846;PMS5003;49477;35.676;139.586;2023-07-13T13:03:29;4;4;
62846;PMS5003;49477;35.676;139.586;2023-07-13T13:06:01;6;6;
62846;PMS5003;49477;35.676;139.586;2023-07-13T13:08:33;5;5;
62846;PMS5003;49477;35.676;139.586;2023-07-13T13:11:03;5;5;
62846;PMS5003;49477;35.676;139.586;2023-07-13T13:13:32;4;4;
62846;PMS5003;49477;35.676;139.586;2023-07-13T13:16:02;6;6;
62846;PMS5003;49477;35.676;139.586;2023-07-13T13:18:36;5;5;
62846;PMS5003;49477;35.676;139.586;2023-07-13T13:21:08;5;5;
62846;PMS5003;49477;35.676;139.586;2023-07-13T13:23:38;8;7;
62846;PMS5003;49477;35.676;139.586;2023-07-13T13:26:10;5;5;
62846;PMS5003;49477;35.676;139.586;2023-07-13T13:28:40;3;3;
62846;PMS5003;49477;35.676;139.586;2023-07-13T13:31:10;4;4;
62846;PMS5003;49477;35.676;139.586;2023-07-13T13:33:40;5;5;
62846;PMS5003;49477;35.676;139.586;2023-07-13T13:36:13;5;4;
62846;PMS5003;49477;35.676;139.586;2023-07-13T13:38:44;6;5;
62846;PMS5003;49477;35.676;139.586;2023-07-13T13:41:14;5;5;
62846;PMS5003;49477;35.676;139.586;2023-07-13T13:43:43;5;5;
62846;PMS5003;49477;35.676;139.586;2023-07-13T13:46:14;4;4;
62846;PMS5003;49477;35.676;139.586;2023-07-13T13:48:45;6;6;
62846;PMS5003;49477;35.676;139.586;2023-07-13T13:51:16;5;5;
62846;PMS5003;49477;35.676;139.586;2023-07-13T13:53:48;5;5;
62846;PMS5003;49477;35.676;139.586;2023-07-13T13:56:18;4;4;
62846;PMS5003;49477;35.676;139.586;2023-07-13T13:58:47;5;5;
62846;PMS5003;49477;35.676;139.586;2023-07-13T14:01:17;4;4;
62846;PMS5003;49477;35.676;139.586;2023-07-13T14:03:49;7;6;
62846;PMS5003;49477;35.676;139.586;2023-07-13T14:06:18;6;5;
62846;PMS5003;49477;35.676;139.586;2023-07-13T14:08:48;6;5;
62846;PMS5003;49477;35.676;139.586;2023-07-13T14:11:18;6;6;
62846;PMS5003;49477;35.676;139.586;2023-07-13T14:13:50;7;7;
62846;PMS5003;49477;35.676;139.586;2023-07-13T14:16:23;8;7;
62846;PMS5003;49477;35.676;139.586;2023-07-13T14:18:56;5;5;
62846;PMS5003;49477;35.676;139.586;2023-07-13T14:21:27;6;6;
62846;PMS5003;49477;35.676;139.586;2023-07-13T14:23:57;6;5;
62846;PMS5003;49477;35.676;139.586;2023-07-13T14:26:27;11;7;
62846;PMS5003;49477;35.676;139.586;2023-07-13T14:28:58;7;7;
62846;PMS5003;49477;35.676;139.586;2023-07-13T14:31:27;8;8;
62846;PMS5003;49477;35.676;139.586;2023-07-13T14:33:57;4;4;
62846;PMS5003;49477;35.676;139.586;2023-07-13T14:36:27;8;7;
62846;PMS5003;49477;35.676;139.586;2023-07-13T14:39:09;5;5;
62846;PMS5003;49477;35.676;139.586;2023-07-13T14:41:41;9;8;
62846;PMS5003;49477;35.676;139.586;2023-07-13T14:44:11;6;6;
62846;PMS5003;49477;35.676;139.586;2023-07-13T14:46:41;8;8;
62846;PMS5003;49477;35.676;139.586;2023-07-13T14:49:13;8;6;
62846;PMS5003;49477;35.676;139.586;2023-07-13T14:51:49;8;8;
62846;PMS5003;49477;35.676;139.586;2023-07-13T14:54:19;11;9;
62846;PMS5003;49477;35.676;139.586;2023-07-13T14:56:49;7;7;
62846;PMS5003;49477;35.676;139.586;2023-07-13T14:59:18;8;8;
62846;PMS5003;49477;35.676;139.586;2023-07-13T15:01:48;7;5;
62846;PMS5003;49477;35.676;139.586;2023-07-13T15:04:17;8;7;
62846;PMS5003;49477;35.676;139.586;2023-07-13T15:06:55;8;8;
62846;PMS5003;49477;35.676;139.586;2023-07-13T15:09:26;8;8;
62846;PMS5003;49477;35.676;139.586;2023-07-13T15:11:57;10;8;
62846;PMS5003;49477;35.676;139.586;2023-07-13T15:14:27;5;5;
62846;PMS5003;49477;35.676;139.586;2023-07-13T15:16:56;10;9;
62846;PMS5003;49477;35.676;139.586;2023-07-13T15:19:26;7;7;
62846;PMS5003;49477;35.676;139.586;2023-07-13T15:21:56;8;8;
62846;PMS5003;49477;35.676;139.586;2023-07-13T15:24:26;7;7;
62846;PMS5003;49477;35.676;139.586;2023-07-13T15:26:57;7;7;
62846;PMS5003;49477;35.676;139.586;2023-07-13T15:29:26;8;8;
62846;PMS5003;49477;35.676;139.586;2023-07-13T15:31:56;7;7;
62846;PMS5003;49477;35.676;139.586;2023-07-13T15:34:25;9;9;
62846;PMS5003;49477;35.676;139.586;2023-07-13T15:36:55;10;8;
62846;PMS5003;49477;35.676;139.586;2023-07-13T15:39:24;9;9;
62846;PMS5003;49477;35.676;139.586;2023-07-13T15:41:53;6;6;
62846;PMS5003;49477;35.676;139.586;2023-07-13T15:44:24;7;7;
62846;PMS5003;49477;35.676;139.586;2023-07-13T15:46:56;8;8;
62846;PMS5003;49477;35.676;139.586;2023-07-13T15:49:25;9;7;
62846;PMS5003;49477;35.676;139.586;2023-07-13T15:51:55;10;8;
62846;PMS5003;49477;35.676;139.586;2023-07-13T15:54:25;10;9;
62846;PMS5003;49477;35.676;139.586;2023-07-13T15:56:55;8;8;
62846;PMS5003;49477;35.676;139.586;2023-07-13T15:59:29;9;6;
62846;PMS5003;49477;35.676;139.586;2023-07-13T16:01:59;7;7;
62846;PMS5003;49477;35.676;139.586;2023-07-13T16:04:29;8;8;
62846;PMS5003;49477;35.676;139.586;2023-07-13T16:06:58;7;7;
62846;PMS5003;49477;35.676;139.586;2023-07-13T16:09:28;9;8;
62846;PMS5003;49477;35.676;139.586;2023-07-13T16:11:57;10;8;
62846;PMS5003;49477;35.676;139.586;2023-07-13T16:14:26;9;8;
62846;PMS5003;49477;35.676;139.586;2023-07-13T16:16:56;10;9;
62846;PMS5003;49477;35.676;139.586;2023-07-13T16:19:26;9;8;
62846;PMS5003;49477;35.676;139.586;2023-07-13T16:21:55;10;9;
62846;PMS5003;49477;35.676;139.586;2023-07-13T16:24:25;10;9;
62846;PMS5003;49477;35.676;139.586;2023-07-13T16:26:55;9;9;
62846;PMS5003;49477;35.676;139.586;2023-07-13T16:29:26;7;7;
62846;PMS5003;49477;35.676;139.586;2023-07-13T16:31:58;9;9;
62846;PMS5003;49477;35.676;139.586;2023-07-13T16:34:28;9;9;
62846;PMS5003;49477;35.676;139.586;2023-07-13T16:36:58;7;7;
62846;PMS5003;49477;35.676;139.586;2023-07-13T16:39:29;8;8;